sensor_id;sensor_type;location;lat;lon;timestamp;P1;durP1;ratioP1;P2;durP2;ratioP2
2390;SDS011;22957;50.824;4.360;2023-06-22T00:02:16;1377.70;;;999.90;;
2390;SDS011;22957;50.824;4.360;2023-06-22T00:04:42;1371.97;;;999.90;;
2390;SDS011;22957;50.824;4.360;2023-06-22T00:07:08;1378.63;;;999.90;;
2390;SDS011;22957;50.824;4.360;2023-06-22T00:09:34;1371.67;;;999.90;;
2390;SDS011;22957;50.824;4.360;2023-06-22T00:11:59;1377.80;;;999.90;;
2390;SDS011;22957;50.824;4.360;2023-06-22T00:14:25;1369.83;;;999.90;;
2390;SDS011;22957;50.824;4.360;2023-06-22T00:16:50;1369.60;;;999.90;;
2390;SDS011;22957;50.824;4.360;2023-06-22T00:19:22;1382.33;;;999.90;;
2390;SDS011;22957;50.824;4.360;2023-06-22T00:21:48;1380.90;;;999.90;;
2390;SDS011;22957;50.824;4.360;2023-06-22T00:24:18;1372.03;;;999.90;;
2390;SDS011;22957;50.824;4.360;2023-06-22T00:26:44;1366.77;;;999.90;;
2390;SDS011;22957;50.824;4.360;2023-06-22T00:29:10;1371.57;;;999.90;;
2390;SDS011;22957;50.824;4.360;2023-06-22T00:31:35;1371.07;;;999.90;;
2390;SDS011;22957;50.824;4.360;2023-06-22T00:34:01;1372.60;;;999.90;;
2390;SDS011;22957;50.824;4.360;2023-06-22T00:36:26;1369.33;;;999.90;;
2390;SDS011;22957;50.824;4.360;2023-06-22T00:38:52;1362.93;;;999.90;;
2390;SDS011;22957;50.824;4.360;2023-06-22T00:41:17;1370.03;;;999.90;;
2390;SDS011;22957;50.824;4.360;2023-06-22T00:43:43;1367.90;;;999.90;;
2390;SDS011;22957;50.824;4.360;2023-06-22T00:46:08;1367.10;;;999.90;;
2390;SDS011;22957;50.824;4.360;2023-06-22T00:48:34;1362.60;;;999.90;;
2390;SDS011;22957;50.824;4.360;2023-06-22T00:51:02;1366.70;;;999.90;;
2390;SDS011;22957;50.824;4.360;2023-06-22T00:53:27;1364.20;;;999.90;;
2390;SDS011;22957;50.824;4.360;2023-06-22T00:55:53;1374.43;;;999.90;;
2390;SDS011;22957;50.824;4.360;2023-06-22T00:58:19;1366.93;;;999.90;;
2390;SDS011;22957;50.824;4.360;2023-06-22T01:00:46;1369.50;;;999.90;;
2390;SDS011;22957;50.824;4.360;2023-06-22T01:03:13;1374.83;;;999.90;;
2390;SDS011;22957;50.824;4.360;2023-06-22T01:05:38;1363.80;;;999.90;;
2390;SDS011;22957;50.824;4.360;2023-06-22T01:11:13;1358.53;;;999.90;;
2390;SDS011;22957;50.824;4.360;2023-06-22T01:16:25;1359.73;;;999.90;;
2390;SDS011;22957;50.824;4.360;2023-06-22T01:18:55;1365.37;;;999.90;;
2390;SDS011;22957;50.824;4.360;2023-06-22T01:21:24;1363.47;;;999.90;;
2390;SDS011;22957;50.824;4.360;2023-06-22T01:24:10;1365.50;;;999.90;;
2390;SDS011;22957;50.824;4.360;2023-06-22T01:26:54;1366.83;;;999.90;;
2390;SDS011;22957;50.824;4.360;2023-06-22T01:29:33;1363.97;;;999.90;;
2390;SDS011;22957;50.824;4.360;2023-06-22T01:32:01;1363.53;;;999.90;;
2390;SDS011;22957;50.824;4.360;2023-06-22T01:34:29;1365.97;;;999.90;;
2390;SDS011;22957;50.824;4.360;2023-06-22T01:36:57;1358.63;;;999.90;;
2390;SDS011;22957;50.824;4.360;2023-06-22T01:39:24;1372.43;;;999.90;;
2390;SDS011;22957;50.824;4.360;2023-06-22T01:41:51;1365.20;;;999.90;;
2390;SDS011;22957;50.824;4.360;2023-06-22T01:44:18;1363.40;;;999.90;;
2390;SDS011;22957;50.824;4.360;2023-06-22T01:46:44;1361.90;;;999.90;;
2390;SDS011;22957;50.824;4.360;2023-06-22T01:49:10;1355.10;;;999.90;;
2390;SDS011;22957;50.824;4.360;2023-06-22T01:51:37;1366.23;;;999.90;;
2390;SDS011;22957;50.824;4.360;2023-06-22T01:54:02;1360.57;;;999.90;;
2390;SDS011;22957;50.824;4.360;2023-06-22T01:56:28;1357.63;;;999.90;;
2390;SDS011;22957;50.824;4.360;2023-06-22T01:59:08;1355.03;;;999.90;;
2390;SDS011;22957;50.824;4.360;2023-06-22T02:02:27;1366.03;;;999.90;;
2390;SDS011;22957;50.824;4.360;2023-06-22T02:04:52;1356.27;;;999.90;;
2390;SDS011;22957;50.824;4.360;2023-06-22T02:07:32;1347.40;;;999.90;;
2390;SDS011;22957;50.824;4.360;2023-06-22T02:10:04;1346.63;;;999.90;;
2390;SDS011;22957;50.824;4.360;2023-06-22T02:12:32;1348.67;;;999.90;;
2390;SDS011;22957;50.824;4.360;2023-06-22T02:14:59;1357.17;;;999.90;;
2390;SDS011;22957;50.824;4.360;2023-06-22T02:17:26;1357.30;;;999.90;;
2390;SDS011;22957;50.824;4.360;2023-06-22T02:19:51;1361.03;;;999.90;;
2390;SDS011;22957;50.824;4.360;2023-06-22T02:22:17;1362.67;;;999.90;;
2390;SDS011;22957;50.824;4.360;2023-06-22T02:24:43;1357.67;;;999.90;;
2390;SDS011;22957;50.824;4.360;2023-06-22T02:27:08;1356.37;;;999.90;;
2390;SDS011;22957;50.824;4.360;2023-06-22T02:29:35;1363.57;;;999.90;;
2390;SDS011;22957;50.824;4.360;2023-06-22T02:32:01;1366.63;;;999.90;;
2390;SDS011;22957;50.824;4.360;2023-06-22T02:34:27;1360.40;;;999.90;;
2390;SDS011;22957;50.824;4.360;2023-06-22T02:36:53;1362.70;;;999.90;;
2390;SDS011;22957;50.824;4.360;2023-06-22T02:39:23;1356.07;;;999.90;;
2390;SDS011;22957;50.824;4.360;2023-06-22T02:41:50;1354.57;;;999.90;;
2390;SDS011;22957;50.824;4.360;2023-06-22T02:44:16;1353.17;;;999.90;;
2390;SDS011;22957;50.824;4.360;2023-06-22T02:46:42;1353.23;;;999.90;;
2390;SDS011;22957;50.824;4.360;2023-06-22T02:49:08;1363.20;;;999.90;;
2390;SDS011;22957;50.824;4.360;2023-06-22T02:51:34;1359.63;;;999.90;;
2390;SDS011;22957;50.824;4.360;2023-06-22T02:54:00;1348.63;;;999.90;;
2390;SDS011;22957;50.824;4.360;2023-06-22T02:56:28;1347.40;;;999.90;;
2390;SDS011;22957;50.824;4.360;2023-06-22T02:58:55;1353.97;;;999.90;;
2390;SDS011;22957;50.824;4.360;2023-06-22T03:01:25;1338.57;;;999.90;;
2390;SDS011;22957;50.824;4.360;2023-06-22T03:03:52;1349.37;;;999.90;;
2390;SDS011;22957;50.824;4.360;2023-06-22T03:06:19;1339.03;;;999.90;;
2390;SDS011;22957;50.824;4.360;2023-06-22T03:08:48;1335.70;;;999.90;;
2390;SDS011;22957;50.824;4.360;2023-06-22T03:11:15;1352.10;;;999.90;;
2390;SDS011;22957;50.824;4.360;2023-06-22T03:13:40;1347.30;;;999.90;;
2390;SDS011;22957;50.824;4.360;2023-06-22T03:16:06;1350.93;;;999.90;;
2390;SDS011;22957;50.824;4.360;2023-06-22T03:18:31;1346.23;;;999.90;;
2390;SDS011;22957;50.824;4.360;2023-06-22T03:20:57;1341.37;;;999.90;;
2390;SDS011;22957;50.824;4.360;2023-06-22T03:23:23;1344.57;;;999.90;;
2390;SDS011;22957;50.824;4.360;2023-06-22T03:25:49;1343.87;;;999.90;;
2390;SDS011;22957;50.824;4.360;2023-06-22T03:28:14;1349.13;;;999.90;;
2390;SDS011;22957;50.824;4.360;2023-06-22T03:30:40;1347.83;;;999.90;;
2390;SDS011;22957;50.824;4.360;2023-06-22T03:33:05;1348.73;;;999.90;;
2390;SDS011;22957;50.824;4.360;2023-06-22T03:35:31;1355.10;;;999.90;;
2390;SDS011;22957;50.824;4.360;2023-06-22T03:37:56;1356.80;;;999.90;;
2390;SDS011;22957;50.824;4.360;2023-06-22T03:40:22;1347.60;;;999.90;;
2390;SDS011;22957;50.824;4.360;2023-06-22T03:42:48;1349.30;;;999.90;;
2390;SDS011;22957;50.824;4.360;2023-06-22T03:45:13;1346.57;;;999.90;;
2390;SDS011;22957;50.824;4.360;2023-06-22T03:47:39;1350.53;;;999.90;;
2390;SDS011;22957;50.824;4.360;2023-06-22T03:50:06;1353.33;;;999.90;;
2390;SDS011;22957;50.824;4.360;2023-06-22T03:52:31;1350.63;;;999.90;;
2390;SDS011;22957;50.824;4.360;2023-06-22T03:54:57;1359.93;;;999.90;;
2390;SDS011;22957;50.824;4.360;2023-06-22T03:57:23;1366.37;;;999.90;;
2390;SDS011;22957;50.824;4.360;2023-06-22T03:59:49;1360.80;;;999.90;;
2390;SDS011;22957;50.824;4.360;2023-06-22T04:02:15;1364.27;;;999.90;;
2390;SDS011;22957;50.824;4.360;2023-06-22T04:04:41;1358.33;;;999.90;;
2390;SDS011;22957;50.824;4.360;2023-06-22T04:07:06;1354.83;;;999.90;;
2390;SDS011;22957;50.824;4.360;2023-06-22T04:09:32;1350.10;;;999.90;;
2390;SDS011;22957;50.824;4.360;2023-06-22T04:11:58;1356.47;;;999.90;;
2390;SDS011;22957;50.824;4.360;2023-06-22T04:14:23;1357.20;;;999.90;;
2390;SDS011;22957;50.824;4.360;2023-06-22T04:16:49;1357.50;;;999.90;;
2390;SDS011;22957;50.824;4.360;2023-06-22T04:19:14;1360.50;;;999.90;;
2390;SDS011;22957;50.824;4.360;2023-06-22T04:21:42;1363.00;;;999.90;;
2390;SDS011;22957;50.824;4.360;2023-06-22T04:24:09;1361.80;;;999.90;;
2390;SDS011;22957;50.824;4.360;2023-06-22T04:26:35;1370.37;;;999.90;;
2390;SDS011;22957;50.824;4.360;2023-06-22T04:29:05;1362.57;;;999.90;;
2390;SDS011;22957;50.824;4.360;2023-06-22T04:31:33;1358.20;;;999.90;;
2390;SDS011;22957;50.824;4.360;2023-06-22T04:34:01;1348.43;;;999.90;;
2390;SDS011;22957;50.824;4.360;2023-06-22T04:36:37;1355.20;;;999.90;;
2390;SDS011;22957;50.824;4.360;2023-06-22T04:39:05;1341.43;;;999.90;;
2390;SDS011;22957;50.824;4.360;2023-06-22T04:41:35;1339.00;;;999.90;;
2390;SDS011;22957;50.824;4.360;2023-06-22T04:44:28;1333.03;;;999.90;;
2390;SDS011;22957;50.824;4.360;2023-06-22T04:46:54;1338.57;;;999.90;;
2390;SDS011;22957;50.824;4.360;2023-06-22T04:49:27;1333.53;;;999.90;;
2390;SDS011;22957;50.824;4.360;2023-06-22T04:52:02;1343.40;;;999.90;;
2390;SDS011;22957;50.824;4.360;2023-06-22T04:54:29;1350.63;;;999.90;;
2390;SDS011;22957;50.824;4.360;2023-06-22T04:56:57;1347.07;;;999.90;;
2390;SDS011;22957;50.824;4.360;2023-06-22T04:59:36;1352.43;;;999.90;;
2390;SDS011;22957;50.824;4.360;2023-06-22T05:02:04;1347.07;;;999.90;;
2390;SDS011;22957;50.824;4.360;2023-06-22T05:04:30;1337.67;;;999.90;;
2390;SDS011;22957;50.824;4.360;2023-06-22T05:06:56;1343.60;;;999.90;;
2390;SDS011;22957;50.824;4.360;2023-06-22T05:09:23;1345.23;;;999.90;;
2390;SDS011;22957;50.824;4.360;2023-06-22T05:11:50;1337.27;;;999.90;;
2390;SDS011;22957;50.824;4.360;2023-06-22T05:14:15;1329.17;;;999.90;;
2390;SDS011;22957;50.824;4.360;2023-06-22T05:16:42;1310.43;;;999.90;;
2390;SDS011;22957;50.824;4.360;2023-06-22T05:19:08;1313.10;;;999.90;;
2390;SDS011;22957;50.824;4.360;2023-06-22T05:21:34;1308.80;;;999.90;;
2390;SDS011;22957;50.824;4.360;2023-06-22T05:24:00;1311.77;;;999.90;;
2390;SDS011;22957;50.824;4.360;2023-06-22T05:26:27;1292.67;;;999.90;;
2390;SDS011;22957;50.824;4.360;2023-06-22T05:28:57;1306.20;;;999.90;;
2390;SDS011;22957;50.824;4.360;2023-06-22T05:31:24;1306.73;;;999.90;;
2390;SDS011;22957;50.824;4.360;2023-06-22T05:33:51;1295.60;;;999.90;;
2390;SDS011;22957;50.824;4.360;2023-06-22T05:36:17;1287.53;;;999.90;;
2390;SDS011;22957;50.824;4.360;2023-06-22T05:38:46;1298.57;;;999.90;;
2390;SDS011;22957;50.824;4.360;2023-06-22T05:41:12;1304.87;;;999.90;;
2390;SDS011;22957;50.824;4.360;2023-06-22T05:43:39;1301.43;;;999.90;;
2390;SDS011;22957;50.824;4.360;2023-06-22T05:46:04;1306.97;;;999.90;;
2390;SDS011;22957;50.824;4.360;2023-06-22T05:48:30;1297.17;;;999.90;;
2390;SDS011;22957;50.824;4.360;2023-06-22T05:50:56;1297.23;;;999.90;;
2390;SDS011;22957;50.824;4.360;2023-06-22T05:53:22;1295.63;;;999.90;;
2390;SDS011;22957;50.824;4.360;2023-06-22T05:55:47;1312.57;;;999.90;;
2390;SDS011;22957;50.824;4.360;2023-06-22T05:58:13;1307.83;;;999.90;;
2390;SDS011;22957;50.824;4.360;2023-06-22T06:00:39;1301.27;;;999.90;;
2390;SDS011;22957;50.824;4.360;2023-06-22T06:03:06;1306.63;;;999.90;;
2390;SDS011;22957;50.824;4.360;2023-06-22T06:05:32;1319.23;;;999.90;;
2390;SDS011;22957;50.824;4.360;2023-06-22T06:08:02;1296.80;;;999.90;;
2390;SDS011;22957;50.824;4.360;2023-06-22T06:10:33;1303.87;;;999.90;;
2390;SDS011;22957;50.824;4.360;2023-06-22T06:12:59;1296.13;;;999.90;;
2390;SDS011;22957;50.824;4.360;2023-06-22T06:15:27;1301.93;;;999.90;;
2390;SDS011;22957;50.824;4.360;2023-06-22T06:17:53;1309.30;;;999.90;;
2390;SDS011;22957;50.824;4.360;2023-06-22T06:20:20;1324.07;;;999.90;;
2390;SDS011;22957;50.824;4.360;2023-06-22T06:22:48;1316.20;;;999.90;;
2390;SDS011;22957;50.824;4.360;2023-06-22T06:25:13;1323.60;;;999.90;;
2390;SDS011;22957;50.824;4.360;2023-06-22T06:27:45;1324.87;;;999.90;;
2390;SDS011;22957;50.824;4.360;2023-06-22T06:30:12;1322.20;;;999.90;;
2390;SDS011;22957;50.824;4.360;2023-06-22T06:32:39;1319.47;;;999.90;;
2390;SDS011;22957;50.824;4.360;2023-06-22T06:35:05;1329.37;;;999.90;;
2390;SDS011;22957;50.824;4.360;2023-06-22T06:37:35;1327.17;;;999.90;;
2390;SDS011;22957;50.824;4.360;2023-06-22T06:40:03;1329.43;;;999.90;;
2390;SDS011;22957;50.824;4.360;2023-06-22T06:42:30;1336.67;;;999.90;;
2390;SDS011;22957;50.824;4.360;2023-06-22T06:44:56;1334.50;;;999.90;;
2390;SDS011;22957;50.824;4.360;2023-06-22T06:47:22;1340.10;;;999.90;;
2390;SDS011;22957;50.824;4.360;2023-06-22T06:49:47;1344.27;;;999.90;;
2390;SDS011;22957;50.824;4.360;2023-06-22T06:52:13;1349.97;;;999.90;;
2390;SDS011;22957;50.824;4.360;2023-06-22T06:54:38;1349.60;;;999.90;;
2390;SDS011;22957;50.824;4.360;2023-06-22T06:57:04;1336.70;;;999.90;;
2390;SDS011;22957;50.824;4.360;2023-06-22T06:59:29;1342.40;;;999.90;;
2390;SDS011;22957;50.824;4.360;2023-06-22T07:01:55;1346.43;;;999.90;;
2390;SDS011;22957;50.824;4.360;2023-06-22T07:04:21;1344.20;;;999.90;;
2390;SDS011;22957;50.824;4.360;2023-06-22T07:06:46;1347.47;;;999.90;;
2390;SDS011;22957;50.824;4.360;2023-06-22T07:09:12;1355.63;;;999.90;;
2390;SDS011;22957;50.824;4.360;2023-06-22T07:11:37;1357.43;;;999.90;;
2390;SDS011;22957;50.824;4.360;2023-06-22T07:14:03;1359.03;;;999.90;;
2390;SDS011;22957;50.824;4.360;2023-06-22T07:16:28;1359.97;;;999.90;;
2390;SDS011;22957;50.824;4.360;2023-06-22T07:18:56;1353.00;;;999.90;;
2390;SDS011;22957;50.824;4.360;2023-06-22T07:21:21;1360.60;;;999.90;;
2390;SDS011;22957;50.824;4.360;2023-06-22T07:23:47;1355.30;;;999.90;;
2390;SDS011;22957;50.824;4.360;2023-06-22T07:26:12;1346.80;;;999.90;;
2390;SDS011;22957;50.824;4.360;2023-06-22T07:28:38;1356.57;;;999.90;;
2390;SDS011;22957;50.824;4.360;2023-06-22T07:31:05;1359.73;;;999.90;;
2390;SDS011;22957;50.824;4.360;2023-06-22T07:33:31;1361.30;;;999.90;;
2390;SDS011;22957;50.824;4.360;2023-06-22T07:35:57;1366.20;;;999.90;;
2390;SDS011;22957;50.824;4.360;2023-06-22T07:38:22;1368.30;;;999.90;;
2390;SDS011;22957;50.824;4.360;2023-06-22T07:40:48;1375.17;;;999.90;;
2390;SDS011;22957;50.824;4.360;2023-06-22T07:43:15;1368.27;;;999.90;;
2390;SDS011;22957;50.824;4.360;2023-06-22T07:45:44;1359.90;;;999.90;;
2390;SDS011;22957;50.824;4.360;2023-06-22T07:48:20;1348.50;;;999.90;;
2390;SDS011;22957;50.824;4.360;2023-06-22T07:50:47;1352.80;;;999.90;;
2390;SDS011;22957;50.824;4.360;2023-06-22T07:53:13;1350.87;;;999.90;;
2390;SDS011;22957;50.824;4.360;2023-06-22T07:55:38;1350.13;;;999.90;;
2390;SDS011;22957;50.824;4.360;2023-06-22T07:58:04;1359.67;;;999.90;;
2390;SDS011;22957;50.824;4.360;2023-06-22T08:00:29;1358.67;;;999.90;;
2390;SDS011;22957;50.824;4.360;2023-06-22T08:02:55;1360.53;;;999.90;;
2390;SDS011;22957;50.824;4.360;2023-06-22T08:05:21;1353.60;;;999.90;;
2390;SDS011;22957;50.824;4.360;2023-06-22T08:07:46;1343.10;;;999.90;;
2390;SDS011;22957;50.824;4.360;2023-06-22T08:10:12;1350.13;;;999.90;;
2390;SDS011;22957;50.824;4.360;2023-06-22T08:12:39;1362.77;;;999.90;;
2390;SDS011;22957;50.824;4.360;2023-06-22T08:15:05;1358.50;;;999.90;;
2390;SDS011;22957;50.824;4.360;2023-06-22T08:17:32;1356.97;;;999.90;;
2390;SDS011;22957;50.824;4.360;2023-06-22T08:19:58;1370.83;;;999.90;;
2390;SDS011;22957;50.824;4.360;2023-06-22T08:22:23;1363.00;;;999.90;;
2390;SDS011;22957;50.824;4.360;2023-06-22T08:24:49;1364.80;;;999.90;;
2390;SDS011;22957;50.824;4.360;2023-06-22T08:27:15;1367.57;;;999.90;;
2390;SDS011;22957;50.824;4.360;2023-06-22T08:29:41;1365.23;;;999.90;;
2390;SDS011;22957;50.824;4.360;2023-06-22T08:32:11;1361.70;;;999.90;;
2390;SDS011;22957;50.824;4.360;2023-06-22T08:34:37;1365.47;;;999.90;;
2390;SDS011;22957;50.824;4.360;2023-06-22T08:37:07;1365.53;;;999.90;;
2390;SDS011;22957;50.824;4.360;2023-06-22T08:39:33;1359.43;;;999.90;;
2390;SDS011;22957;50.824;4.360;2023-06-22T08:41:59;1357.03;;;999.90;;
2390;SDS011;22957;50.824;4.360;2023-06-22T08:44:25;1350.70;;;999.90;;
2390;SDS011;22957;50.824;4.360;2023-06-22T08:46:50;1350.10;;;999.90;;
2390;SDS011;22957;50.824;4.360;2023-06-22T08:49:16;1343.20;;;999.90;;
2390;SDS011;22957;50.824;4.360;2023-06-22T08:51:41;1339.53;;;999.90;;
2390;SDS011;22957;50.824;4.360;2023-06-22T08:54:09;1341.23;;;999.90;;
2390;SDS011;22957;50.824;4.360;2023-06-22T08:56:35;1343.10;;;999.90;;
2390;SDS011;22957;50.824;4.360;2023-06-22T08:59:00;1337.60;;;999.90;;
2390;SDS011;22957;50.824;4.360;2023-06-22T09:01:27;1341.73;;;999.90;;
2390;SDS011;22957;50.824;4.360;2023-06-22T09:03:52;1345.73;;;999.90;;
2390;SDS011;22957;50.824;4.360;2023-06-22T09:06:22;1354.30;;;999.90;;
2390;SDS011;22957;50.824;4.360;2023-06-22T09:08:49;1342.10;;;999.90;;
2390;SDS011;22957;50.824;4.360;2023-06-22T09:11:15;1339.03;;;999.90;;
2390;SDS011;22957;50.824;4.360;2023-06-22T09:13:40;1345.93;;;999.90;;
2390;SDS011;22957;50.824;4.360;2023-06-22T09:16:06;1354.03;;;999.90;;
2390;SDS011;22957;50.824;4.360;2023-06-22T09:18:31;1356.00;;;999.90;;
2390;SDS011;22957;50.824;4.360;2023-06-22T09:20:59;1348.27;;;999.90;;
2390;SDS011;22957;50.824;4.360;2023-06-22T09:23:24;1350.27;;;999.90;;
2390;SDS011;22957;50.824;4.360;2023-06-22T09:25:50;1349.07;;;999.90;;
2390;SDS011;22957;50.824;4.360;2023-06-22T09:28:15;1351.47;;;999.90;;
2390;SDS011;22957;50.824;4.360;2023-06-22T09:30:42;1341.60;;;999.90;;
2390;SDS011;22957;50.824;4.360;2023-06-22T09:33:09;1341.70;;;999.90;;
2390;SDS011;22957;50.824;4.360;2023-06-22T09:35:34;1329.27;;;999.90;;
2390;SDS011;22957;50.824;4.360;2023-06-22T09:38:00;1319.77;;;999.90;;
2390;SDS011;22957;50.824;4.360;2023-06-22T09:40:25;1315.40;;;999.90;;
2390;SDS011;22957;50.824;4.360;2023-06-22T09:42:51;1293.70;;;999.90;;
2390;SDS011;22957;50.824;4.360;2023-06-22T09:45:16;1270.03;;;999.90;;
2390;SDS011;22957;50.824;4.360;2023-06-22T09:47:42;1294.33;;;999.90;;
2390;SDS011;22957;50.824;4.360;2023-06-22T09:50:07;1277.60;;;999.90;;
2390;SDS011;22957;50.824;4.360;2023-06-22T09:52:33;1259.30;;;999.90;;
2390;SDS011;22957;50.824;4.360;2023-06-22T09:54:59;1255.53;;;999.90;;
2390;SDS011;22957;50.824;4.360;2023-06-22T09:57:24;1251.70;;;999.90;;
2390;SDS011;22957;50.824;4.360;2023-06-22T09:59:50;1252.50;;;999.90;;
2390;SDS011;22957;50.824;4.360;2023-06-22T10:02:15;1250.40;;;999.90;;
2390;SDS011;22957;50.824;4.360;2023-06-22T10:04:42;1258.60;;;999.90;;
2390;SDS011;22957;50.824;4.360;2023-06-22T10:07:07;1268.67;;;999.90;;
2390;SDS011;22957;50.824;4.360;2023-06-22T10:09:33;1275.30;;;999.90;;
2390;SDS011;22957;50.824;4.360;2023-06-22T10:11:58;1280.57;;;999.90;;
2390;SDS011;22957;50.824;4.360;2023-06-22T10:14:24;1273.90;;;999.90;;
2390;SDS011;22957;50.824;4.360;2023-06-22T10:16:51;1275.50;;;999.90;;
2390;SDS011;22957;50.824;4.360;2023-06-22T10:19:17;1268.60;;;999.90;;
2390;SDS011;22957;50.824;4.360;2023-06-22T10:21:43;1276.47;;;999.90;;
2390;SDS011;22957;50.824;4.360;2023-06-22T10:24:08;1279.67;;;999.90;;
2390;SDS011;22957;50.824;4.360;2023-06-22T10:26:34;1277.17;;;999.90;;
2390;SDS011;22957;50.824;4.360;2023-06-22T10:29:01;1280.87;;;999.90;;
2390;SDS011;22957;50.824;4.360;2023-06-22T10:31:27;1264.80;;;999.90;;
2390;SDS011;22957;50.824;4.360;2023-06-22T10:33:53;1287.80;;;999.90;;
2390;SDS011;22957;50.824;4.360;2023-06-22T10:36:19;1276.13;;;999.90;;
2390;SDS011;22957;50.824;4.360;2023-06-22T10:38:46;1280.87;;;999.90;;
2390;SDS011;22957;50.824;4.360;2023-06-22T10:41:12;1289.83;;;999.90;;
2390;SDS011;22957;50.824;4.360;2023-06-22T10:43:38;1272.57;;;999.90;;
2390;SDS011;22957;50.824;4.360;2023-06-22T10:46:04;1280.50;;;999.90;;
2390;SDS011;22957;50.824;4.360;2023-06-22T10:48:29;1275.00;;;999.90;;
2390;SDS011;22957;50.824;4.360;2023-06-22T10:50:55;1288.13;;;999.90;;
2390;SDS011;22957;50.824;4.360;2023-06-22T10:53:21;1266.53;;;999.90;;
2390;SDS011;22957;50.824;4.360;2023-06-22T10:55:46;1279.97;;;999.90;;
2390;SDS011;22957;50.824;4.360;2023-06-22T10:58:12;1278.10;;;999.90;;
2390;SDS011;22957;50.824;4.360;2023-06-22T11:00:38;1285.07;;;999.90;;
2390;SDS011;22957;50.824;4.360;2023-06-22T11:03:04;1289.00;;;999.90;;
2390;SDS011;22957;50.824;4.360;2023-06-22T11:05:29;1283.70;;;999.90;;
2390;SDS011;22957;50.824;4.360;2023-06-22T11:07:55;1290.47;;;999.90;;
2390;SDS011;22957;50.824;4.360;2023-06-22T11:10:20;1308.63;;;999.90;;
2390;SDS011;22957;50.824;4.360;2023-06-22T11:12:46;1297.30;;;999.90;;
2390;SDS011;22957;50.824;4.360;2023-06-22T11:15:11;1292.83;;;999.90;;
2390;SDS011;22957;50.824;4.360;2023-06-22T11:17:37;1295.50;;;999.90;;
2390;SDS011;22957;50.824;4.360;2023-06-22T11:20:03;1283.83;;;999.90;;
2390;SDS011;22957;50.824;4.360;2023-06-22T11:22:36;1285.43;;;999.90;;
2390;SDS011;22957;50.824;4.360;2023-06-22T11:25:04;1300.63;;;999.90;;
2390;SDS011;22957;50.824;4.360;2023-06-22T11:27:30;1302.23;;;999.90;;
2390;SDS011;22957;50.824;4.360;2023-06-22T11:29:56;1287.97;;;999.90;;
2390;SDS011;22957;50.824;4.360;2023-06-22T11:32:22;1296.47;;;999.90;;
2390;SDS011;22957;50.824;4.360;2023-06-22T11:34:47;1304.53;;;999.90;;
2390;SDS011;22957;50.824;4.360;2023-06-22T11:37:13;1293.80;;;999.90;;
2390;SDS011;22957;50.824;4.360;2023-06-22T11:39:38;1305.40;;;999.90;;
2390;SDS011;22957;50.824;4.360;2023-06-22T11:42:04;1294.07;;;999.90;;
2390;SDS011;22957;50.824;4.360;2023-06-22T11:44:30;1307.27;;;999.90;;
2390;SDS011;22957;50.824;4.360;2023-06-22T11:46:55;1297.67;;;999.90;;
2390;SDS011;22957;50.824;4.360;2023-06-22T11:49:21;1301.13;;;999.90;;
2390;SDS011;22957;50.824;4.360;2023-06-22T11:51:46;1295.40;;;999.90;;
2390;SDS011;22957;50.824;4.360;2023-06-22T11:54:12;1287.53;;;999.90;;
2390;SDS011;22957;50.824;4.360;2023-06-22T11:56:37;1295.23;;;999.90;;
2390;SDS011;22957;50.824;4.360;2023-06-22T11:59:03;1290.67;;;999.90;;
2390;SDS011;22957;50.824;4.360;2023-06-22T12:01:28;1279.93;;;999.90;;
2390;SDS011;22957;50.824;4.360;2023-06-22T12:03:54;1292.50;;;999.90;;
2390;SDS011;22957;50.824;4.360;2023-06-22T12:06:20;1298.33;;;999.90;;
2390;SDS011;22957;50.824;4.360;2023-06-22T12:08:45;1295.67;;;999.90;;
2390;SDS011;22957;50.824;4.360;2023-06-22T12:11:11;1278.80;;;999.90;;
2390;SDS011;22957;50.824;4.360;2023-06-22T12:13:36;1289.60;;;999.90;;
2390;SDS011;22957;50.824;4.360;2023-06-22T12:16:02;1285.40;;;999.90;;
2390;SDS011;22957;50.824;4.360;2023-06-22T12:18:27;1305.97;;;999.90;;
2390;SDS011;22957;50.824;4.360;2023-06-22T12:20:53;1286.43;;;999.90;;
2390;SDS011;22957;50.824;4.360;2023-06-22T12:23:18;1301.87;;;999.90;;
2390;SDS011;22957;50.824;4.360;2023-06-22T12:25:44;1281.63;;;999.90;;
2390;SDS011;22957;50.824;4.360;2023-06-22T12:28:10;1288.23;;;999.90;;
2390;SDS011;22957;50.824;4.360;2023-06-22T12:30:36;1293.03;;;999.90;;
2390;SDS011;22957;50.824;4.360;2023-06-22T12:33:01;1287.43;;;999.90;;
2390;SDS011;22957;50.824;4.360;2023-06-22T12:35:27;1300.57;;;999.90;;
2390;SDS011;22957;50.824;4.360;2023-06-22T12:37:52;1285.70;;;999.90;;
2390;SDS011;22957;50.824;4.360;2023-06-22T12:40:18;1291.70;;;999.90;;
2390;SDS011;22957;50.824;4.360;2023-06-22T12:42:44;1281.53;;;999.90;;
2390;SDS011;22957;50.824;4.360;2023-06-22T12:45:10;1291.90;;;999.90;;
2390;SDS011;22957;50.824;4.360;2023-06-22T12:47:36;1272.60;;;999.90;;
2390;SDS011;22957;50.824;4.360;2023-06-22T12:50:01;1272.43;;;999.90;;
2390;SDS011;22957;50.824;4.360;2023-06-22T12:52:29;1265.60;;;999.90;;
2390;SDS011;22957;50.824;4.360;2023-06-22T12:54:56;1277.50;;;999.90;;
2390;SDS011;22957;50.824;4.360;2023-06-22T12:57:22;1278.00;;;999.90;;
2390;SDS011;22957;50.824;4.360;2023-06-22T12:59:48;1283.53;;;999.90;;
2390;SDS011;22957;50.824;4.360;2023-06-22T13:02:13;1288.57;;;999.90;;
2390;SDS011;22957;50.824;4.360;2023-06-22T13:04:39;1279.67;;;999.90;;
2390;SDS011;22957;50.824;4.360;2023-06-22T13:07:05;1281.70;;;999.90;;
2390;SDS011;22957;50.824;4.360;2023-06-22T13:09:30;1272.13;;;999.90;;
2390;SDS011;22957;50.824;4.360;2023-06-22T13:11:56;1263.43;;;999.90;;
2390;SDS011;22957;50.824;4.360;2023-06-22T13:14:21;1264.73;;;999.90;;
2390;SDS011;22957;50.824;4.360;2023-06-22T13:16:47;1280.77;;;999.90;;
2390;SDS011;22957;50.824;4.360;2023-06-22T13:19:12;1279.83;;;999.90;;
2390;SDS011;22957;50.824;4.360;2023-06-22T13:21:38;1281.23;;;999.90;;
2390;SDS011;22957;50.824;4.360;2023-06-22T13:24:04;1282.83;;;999.90;;
2390;SDS011;22957;50.824;4.360;2023-06-22T13:26:31;1291.20;;;999.90;;
2390;SDS011;22957;50.824;4.360;2023-06-22T13:28:57;1296.17;;;999.90;;
2390;SDS011;22957;50.824;4.360;2023-06-22T13:31:22;1286.27;;;999.90;;
2390;SDS011;22957;50.824;4.360;2023-06-22T13:33:48;1277.83;;;999.90;;
2390;SDS011;22957;50.824;4.360;2023-06-22T13:36:17;1294.23;;;999.90;;
2390;SDS011;22957;50.824;4.360;2023-06-22T13:38:43;1291.50;;;999.90;;
2390;SDS011;22957;50.824;4.360;2023-06-22T13:41:08;1292.30;;;999.90;;
2390;SDS011;22957;50.824;4.360;2023-06-22T13:43:34;1280.93;;;999.90;;
2390;SDS011;22957;50.824;4.360;2023-06-22T13:45:59;1282.00;;;999.90;;
2390;SDS011;22957;50.824;4.360;2023-06-22T13:48:25;1273.40;;;999.90;;
2390;SDS011;22957;50.824;4.360;2023-06-22T13:50:51;1279.83;;;999.90;;
2390;SDS011;22957;50.824;4.360;2023-06-22T13:53:17;1278.50;;;999.90;;
2390;SDS011;22957;50.824;4.360;2023-06-22T13:55:42;1270.23;;;999.90;;
2390;SDS011;22957;50.824;4.360;2023-06-22T13:58:08;1278.37;;;999.90;;
2390;SDS011;22957;50.824;4.360;2023-06-22T14:00:33;1284.73;;;999.90;;